Time;durP1;ratioP1;P1;durP2;ratioP2;P2;SDS_P1;SDS_P2;PMS_P1;PMS_P2;Temp;Humidity;BMP_temperature;BMP_pressure;BME280_temperature;BME280_humidity;BME280_pressure;Samples;Min_cycle;Max_cycle;Signal;HPM_P1;HPM_P2
2023/05/03 00:02:05;;;;;;;5.80;2.40;;;7.90;99.90;;;;;;5056746;28;20052;-74
2023/05/03 00:04:30;;;;;;;4.80;2.15;;;7.90;99.90;;;;;;5054630;28;20058;-74
2023/05/03 00:06:57;;;;;;;5.07;1.67;;;9.00;99.90;;;;;;5040883;28;20048;-74
2023/05/03 00:09:22;;;;;;;4.43;1.95;;;7.90;99.90;;;;;;5021525;28;20238;-74
2023/05/03 00:11:48;;;;;;;5.82;1.90;;;7.90;99.90;;;;;;5054420;28;20392;-73
2023/05/03 00:14:14;;;;;;;4.63;1.90;;;7.90;99.90;;;;;;5054780;28;20044;-75
2023/05/03 00:16:41;;;;;;;4.95;1.90;;;7.90;99.90;;;;;;5053794;28;20074;-74
2023/05/03 00:19:09;;;;;;;5.30;2.20;;;8.00;99.90;;;;;;5054296;28;20051;-73
2023/05/03 00:21:36;;;;;;;5.18;2.10;;;8.00;99.90;;;;;;5048146;28;20049;-73
2023/05/03 00:24:02;;;;;;;4.65;2.17;;;8.00;99.90;;;;;;5050891;28;20147;-75
2023/05/03 00:26:28;;;;;;;4.18;1.73;;;8.00;99.90;;;;;;5054363;28;20487;-73
2023/05/03 00:28:54;;;;;;;2.58;1.77;;;8.00;99.90;;;;;;5054577;28;20051;-73
2023/05/03 00:31:20;;;;;;;4.20;1.70;;;8.00;99.90;;;;;;5040521;28;20059;-73
2023/05/03 00:33:47;;;;;;;5.22;1.95;;;7.90;99.90;;;;;;5025728;28;20446;-73
2023/05/03 00:36:14;;;;;;;7.20;2.10;;;7.90;99.90;;;;;;5054146;28;20089;-73
2023/05/03 00:38:41;;;;;;;6.45;2.00;;;7.90;99.90;;;;;;5054232;28;20598;-74
2023/05/03 00:41:09;;;;;;;4.43;1.80;;;8.00;99.90;;;;;;5061450;28;21026;-74
2023/05/03 00:43:36;;;;;;;5.93;2.22;;;7.90;99.90;;;;;;5049901;28;22591;-75
2023/05/03 00:46:05;;;;;;;4.35;2.33;;;8.00;99.90;;;;;;5024808;28;20052;-75
2023/05/03 00:48:33;;;;;;;6.22;2.10;;;8.00;99.90;;;;;;5062569;28;20037;-73
2023/05/03 00:50:59;;;;;;;3.42;1.92;;;7.90;99.90;;;;;;5036530;28;20051;-73
2023/05/03 00:53:26;;;;;;;4.32;2.03;;;8.00;99.90;;;;;;5057742;28;20047;-74
2023/05/03 00:55:52;;;;;;;4.25;2.00;;;7.90;99.90;;;;;;5049224;28;20055;-75
2023/05/03 00:58:21;;;;;;;3.00;1.83;;;7.90;99.90;;;;;;5054914;28;20402;-74
2023/05/03 01:00:48;;;;;;;3.40;1.73;;;7.90;99.90;;;;;;5038180;28;20117;-75
2023/05/03 01:03:14;;;;;;;5.47;1.90;;;7.90;99.90;;;;;;5024525;28;20054;-75
2023/05/03 01:05:59;;;;;;;4.72;2.10;;;7.90;99.90;;;;;;5050063;28;20044;-73
2023/05/03 01:08:42;;;;;;;7.07;2.10;;;7.90;99.90;;;;;;5051330;28;20048;-73
2023/05/03 01:11:16;;;;;;;8.40;2.40;;;7.90;99.90;;;;;;5042888;28;20044;-74
2023/05/03 01:14:00;;;;;;;5.10;2.05;;;7.80;99.90;;;;;;5056108;28;20558;-74
2023/05/03 01:16:34;;;;;;;4.47;2.20;;;7.80;99.90;;;;;;5059170;28;20124;-73
2023/05/03 01:19:03;;;;;;;4.00;2.08;;;7.80;99.90;;;;;;5050046;28;21532;-73
2023/05/03 01:21:30;;;;;;;4.15;2.20;;;7.80;99.90;;;;;;5049981;28;22646;-73
2023/05/03 01:24:06;;;;;;;4.28;2.15;;;7.80;99.90;;;;;;5053634;28;20091;-74
2023/05/03 01:26:32;;;;;;;6.35;2.20;;;7.80;99.90;;;;;;5051941;28;20184;-73
2023/05/03 01:29:01;;;;;;;6.20;2.53;;;7.70;99.90;;;;;;5068823;28;20131;-73
2023/05/03 01:31:51;;;;;;;4.22;2.33;;;7.70;99.90;;;;;;5052503;28;20526;-73
2023/05/03 01:34:41;;;;;;;5.38;2.05;;;7.70;99.90;;;;;;5041337;28;20493;-73
2023/05/03 01:37:09;;;;;;;5.15;2.42;;;7.60;99.90;;;;;;5060967;28;20044;-74
2023/05/03 01:40:00;;;;;;;3.05;1.85;;;7.60;99.90;;;;;;5051378;28;20055;-75
2023/05/03 01:42:27;;;;;;;4.78;2.63;;;7.60;99.90;;;;;;5038676;28;20044;-74
2023/05/03 01:44:55;;;;;;;3.55;2.05;;;7.50;99.90;;;;;;5059455;28;20272;-74
2023/05/03 01:47:21;;;;;;;2.95;2.10;;;7.50;99.90;;;;;;5042295;28;20052;-75
2023/05/03 01:49:47;;;;;;;4.30;2.22;;;7.50;99.90;;;;;;5039511;28;20363;-73
2023/05/03 01:52:13;;;;;;;5.70;1.80;;;7.50;99.90;;;;;;5044173;28;20082;-75
2023/05/03 01:54:39;;;;;;;5.95;2.00;;;7.30;99.90;;;;;;5038032;28;20483;-73
2023/05/03 01:57:05;;;;;;;4.60;1.90;;;7.50;99.90;;;;;;5047348;28;20395;-73
2023/05/03 01:59:30;;;;;;;4.30;2.17;;;7.50;99.90;;;;;;5050292;28;20344;-72
2023/05/03 02:01:56;;;;;;;2.92;1.73;;;7.40;99.90;;;;;;5046441;28;20137;-75
2023/05/03 02:04:22;;;;;;;5.93;2.00;;;7.40;99.90;;;;;;5045311;28;20946;-73
2023/05/03 02:06:48;;;;;;;4.85;2.03;;;7.40;99.90;;;;;;5050262;28;20753;-72
2023/05/03 02:09:13;;;;;;;4.05;1.98;;;7.40;99.90;;;;;;5048334;28;20510;-73
2023/05/03 02:11:39;;;;;;;3.95;2.15;;;7.30;99.90;;;;;;5041274;28;20052;-75
2023/05/03 02:14:05;;;;;;;3.83;2.13;;;7.30;99.90;;;;;;5049995;28;20036;-73
2023/05/03 02:16:31;;;;;;;4.38;2.10;;;7.30;99.90;;;;;;5048393;28;20044;-72
2023/05/03 02:18:58;;;;;;;4.68;2.00;;;7.30;99.90;;;;;;5048637;28;20560;-73
2023/05/03 02:21:26;;;;;;;5.85;2.00;;;7.30;99.90;;;;;;5048091;28;20285;-74
2023/05/03 02:23:54;;;;;;;5.65;2.22;;;7.30;99.90;;;;;;5052278;28;20080;-74
2023/05/03 02:26:20;;;;;;;7.07;2.38;;;7.30;99.90;;;;;;5048665;28;20254;-73
2023/05/03 02:28:46;;;;;;;4.97;2.20;;;7.30;99.90;;;;;;5054727;28;20040;-74
2023/05/03 02:31:14;;;;;;;3.28;2.17;;;7.30;99.90;;;;;;5056090;28;20047;-74
2023/05/03 02:33:40;;;;;;;3.70;2.17;;;7.40;99.90;;;;;;5037661;28;20037;-73
2023/05/03 02:36:06;;;;;;;6.25;2.30;;;7.40;99.90;;;;;;5047498;28;20051;-74
2023/05/03 02:38:32;;;;;;;4.40;2.22;;;7.40;99.90;;;;;;5039297;28;20044;-73
2023/05/03 02:41:00;;;;;;;4.82;2.40;;;7.40;99.90;;;;;;5038175;28;20583;-74
2023/05/03 02:43:25;;;;;;;4.30;2.55;;;7.40;99.90;;;;;;5051057;28;20055;-72
2023/05/03 02:45:51;;;;;;;8.40;2.75;;;7.50;99.90;;;;;;5041327;28;20593;-75
2023/05/03 02:48:17;;;;;;;5.05;2.42;;;7.50;99.90;;;;;;5036120;28;20055;-73
2023/05/03 02:50:44;;;;;;;6.80;2.28;;;7.50;99.90;;;;;;5049682;28;20089;-74
2023/05/03 02:53:11;;;;;;;5.18;2.20;;;7.50;99.90;;;;;;5035423;28;20080;-73
2023/05/03 02:55:37;;;;;;;3.95;2.53;;;7.50;99.90;;;;;;5047387;28;20139;-73
2023/05/03 02:58:02;;;;;;;4.13;2.47;;;7.50;99.90;;;;;;5053341;28;20036;-73
2023/05/03 03:00:28;;;;;;;3.95;2.42;;;7.50;99.90;;;;;;5019865;28;20533;-75
2023/05/03 03:02:54;;;;;;;5.03;2.33;;;7.50;99.90;;;;;;5049380;28;20401;-75
2023/05/03 03:05:19;;;;;;;3.05;2.55;;;6.50;99.90;;;;;;5045102;28;20044;-72
2023/05/03 03:07:46;;;;;;;3.90;2.40;;;7.50;99.90;;;;;;5036935;28;20056;-74
2023/05/03 03:10:12;;;;;;;5.20;3.00;;;7.50;99.90;;;;;;5037043;28;20550;-74
2023/05/03 03:12:38;;;;;;;5.75;2.45;;;7.50;99.90;;;;;;5053083;28;20054;-73
2023/05/03 03:15:04;;;;;;;5.28;2.50;;;7.50;99.90;;;;;;5036598;28;20147;-74
2023/05/03 03:17:30;;;;;;;8.07;2.95;;;7.50;99.90;;;;;;5045641;28;20186;-75
2023/05/03 03:19:57;;;;;;;4.88;2.30;;;7.50;99.90;;;;;;5061832;28;20398;-73
2023/05/03 03:22:24;;;;;;;6.47;2.00;;;7.50;99.90;;;;;;5024743;28;20055;-73
2023/05/03 03:24:51;;;;;;;4.47;2.53;;;7.50;99.90;;;;;;5039138;28;20636;-74
2023/05/03 03:27:16;;;;;;;5.60;2.50;;;7.50;99.90;;;;;;5041005;28;20093;-74
2023/05/03 03:29:42;;;;;;;4.50;2.30;;;7.50;99.90;;;;;;5052610;28;20210;-73
2023/05/03 03:32:08;;;;;;;4.60;2.28;;;7.50;99.90;;;;;;5047019;28;20049;-75
2023/05/03 03:34:34;;;;;;;5.25;2.50;;;7.50;99.90;;;;;;5038315;28;20486;-74
2023/05/03 03:36:59;;;;;;;6.80;2.60;;;7.50;99.90;;;;;;5034491;28;20367;-75
2023/05/03 03:39:25;;;;;;;6.32;2.70;;;7.50;99.90;;;;;;5037967;28;20051;-75
2023/05/03 03:41:51;;;;;;;4.22;2.22;;;7.50;99.90;;;;;;5025789;28;20163;-75
2023/05/03 03:44:17;;;;;;;7.03;2.67;;;7.60;99.90;;;;;;5041790;28;20052;-74
2023/05/03 03:46:42;;;;;;;5.53;2.38;;;7.60;99.90;;;;;;5036771;28;20139;-73
2023/05/03 03:49:08;;;;;;;7.10;2.15;;;7.60;99.90;;;;;;5038054;28;20048;-75
2023/05/03 03:51:34;;;;;;;4.18;2.35;;;7.50;99.90;;;;;;5043261;28;20056;-74
2023/05/03 03:54:00;;;;;;;4.85;2.10;;;7.60;99.90;;;;;;5052172;28;20135;-73
2023/05/03 03:56:28;;;;;;;4.90;1.95;;;7.60;99.90;;;;;;5050744;28;20536;-73
2023/05/03 03:58:55;;;;;;;4.82;1.80;;;7.60;99.90;;;;;;5035444;28;20068;-74
2023/05/03 04:01:22;;;;;;;3.65;1.90;;;7.60;99.90;;;;;;5036065;28;20040;-74
2023/05/03 04:03:48;;;;;;;5.28;2.17;;;7.70;99.90;;;;;;5057011;28;20106;-72
2023/05/03 04:06:14;;;;;;;4.18;1.80;;;7.70;99.90;;;;;;5043210;28;20044;-73
2023/05/03 04:08:40;;;;;;;4.40;1.80;;;7.70;99.90;;;;;;5047168;28;20079;-75
2023/05/03 04:11:11;;;;;;;3.83;1.48;;;7.70;99.90;;;;;;5059125;28;20668;-73
2023/05/03 04:13:37;;;;;;;3.17;1.52;;;7.70;99.90;;;;;;5059278;28;20812;-75
2023/05/03 04:16:07;;;;;;;4.00;1.60;;;7.70;99.90;;;;;;5050436;28;20143;-74
2023/05/03 04:18:32;;;;;;;6.93;1.70;;;7.80;99.90;;;;;;5044506;28;20044;-75
2023/05/03 04:20:58;;;;;;;4.82;1.40;;;7.70;99.90;;;;;;5050323;28;20047;-73
2023/05/03 04:23:25;;;;;;;4.70;1.20;;;7.80;99.90;;;;;;5050514;28;20133;-75
2023/05/03 04:25:51;;;;;;;4.80;1.40;;;7.80;99.90;;;;;;5045269;28;20057;-76
2023/05/03 04:28:24;;;;;;;2.83;1.02;;;7.80;99.90;;;;;;5025608;28;20044;-74
2023/05/03 04:31:20;;;;;;;3.92;1.50;;;7.80;99.90;;;;;;5054054;28;20048;-73
2023/05/03 04:33:58;;;;;;;5.47;1.90;;;7.80;99.90;;;;;;5034863;28;20572;-75
2023/05/03 04:36:28;;;;;;;2.80;1.70;;;7.80;99.90;;;;;;5057168;28;20040;-74
2023/05/03 04:38:55;;;;;;;3.60;1.50;;;7.90;99.90;;;;;;5038974;28;20907;-74
2023/05/03 04:41:23;;;;;;;3.65;1.33;;;7.90;99.90;;;;;;5049324;28;20161;-75
2023/05/03 04:43:49;;;;;;;4.30;1.30;;;7.90;99.90;;;;;;5043992;28;20048;-73
2023/05/03 04:46:15;;;;;;;4.97;1.40;;;8.00;99.90;;;;;;5055111;28;20056;-75
2023/05/03 04:48:41;;;;;;;5.40;1.45;;;8.00;99.90;;;;;;5038414;28;20192;-74
2023/05/03 04:51:07;;;;;;;3.28;1.30;;;8.00;99.90;;;;;;5035277;28;20079;-74
2023/05/03 04:53:33;;;;;;;4.63;1.50;;;8.00;99.90;;;;;;5023594;28;20227;-72
2023/05/03 04:55:59;;;;;;;3.78;1.60;;;8.00;99.90;;;;;;5044483;28;20048;-73
2023/05/03 04:58:25;;;;;;;2.85;1.50;;;8.10;99.90;;;;;;5044280;28;20764;-73
2023/05/03 05:00:51;;;;;;;7.10;1.30;;;8.10;99.90;;;;;;5041089;28;20079;-73
2023/05/03 05:03:17;;;;;;;3.90;1.10;;;8.20;99.90;;;;;;5058333;28;20143;-73
2023/05/03 05:05:46;;;;;;;2.65;1.15;;;8.20;99.90;;;;;;5059547;28;20428;-73
2023/05/03 05:08:12;;;;;;;4.82;1.20;;;8.20;99.90;;;;;;5039343;28;20067;-74
2023/05/03 05:10:46;;;;;;;3.80;1.30;;;8.20;99.90;;;;;;5045457;28;20504;-73
2023/05/03 05:13:13;;;;;;;3.28;1.30;;;8.30;99.90;;;;;;5041370;28;20776;-74
2023/05/03 05:15:51;;;;;;;4.30;1.33;;;8.20;99.90;;;;;;5060246;28;20059;-74
2023/05/03 05:18:16;;;;;;;3.55;1.33;;;8.30;99.90;;;;;;5044009;28;20544;-74
2023/05/03 05:20:42;;;;;;;2.67;1.40;;;8.30;99.90;;;;;;5051711;28;20036;-74
2023/05/03 05:23:11;;;;;;;5.18;1.60;;;8.30;99.90;;;;;;5055553;28;20560;-75
2023/05/03 05:25:37;;;;;;;3.63;1.40;;;8.30;99.90;;;;;;5041301;28;20052;-74
2023/05/03 05:28:03;;;;;;;3.58;1.30;;;8.30;99.90;;;;;;5045977;28;20040;-76
2023/05/03 05:30:29;;;;;;;4.72;1.45;;;8.40;99.90;;;;;;5025005;28;20060;-75
2023/05/03 05:32:55;;;;;;;2.92;1.25;;;8.40;99.90;;;;;;5056157;28;20071;-74
2023/05/03 05:35:21;;;;;;;4.55;1.50;;;8.50;99.90;;;;;;5060374;28;20166;-73
2023/05/03 05:37:47;;;;;;;2.30;1.48;;;8.30;99.90;;;;;;5057969;28;20066;-74
2023/05/03 05:40:13;;;;;;;4.65;1.50;;;8.60;99.90;;;;;;5038438;28;20511;-74
2023/05/03 05:42:41;;;;;;;3.80;1.92;;;8.60;99.90;;;;;;5061556;28;20036;-74
2023/05/03 05:45:07;;;;;;;3.85;1.80;;;8.60;99.90;;;;;;5056105;28;20092;-74
2023/05/03 05:47:35;;;;;;;4.65;1.85;;;8.70;99.90;;;;;;5055928;28;20398;-73
2023/05/03 05:50:02;;;;;;;4.72;1.40;;;8.70;99.90;;;;;;5046226;28;20044;-75
2023/05/03 05:52:28;;;;;;;4.88;1.77;;;8.80;99.90;;;;;;5024496;28;20754;-73
2023/05/03 05:55:01;;;;;;;5.40;2.00;;;8.80;99.90;;;;;;5051267;28;20044;-75
2023/05/03 05:57:27;;;;;;;3.95;1.77;;;8.90;99.90;;;;;;5057209;28;20052;-73
2023/05/03 05:59:52;;;;;;;3.63;1.77;;;8.90;99.90;;;;;;5022372;28;20106;-74
2023/05/03 06:02:22;;;;;;;3.35;1.70;;;9.00;99.90;;;;;;5057049;28;20074;-73
2023/05/03 06:04:47;;;;;;;4.85;1.98;;;9.10;99.90;;;;;;5053528;28;20427;-72
2023/05/03 06:07:15;;;;;;;4.50;1.95;;;9.10;99.90;;;;;;5040360;28;20051;-73
2023/05/03 06:09:48;;;;;;;2.13;1.50;;;9.20;99.90;;;;;;5024650;28;20135;-74
2023/05/03 06:12:13;;;;;;;4.47;1.67;;;9.20;99.90;;;;;;5032820;28;20071;-74
2023/05/03 06:14:40;;;;;;;3.60;1.50;;;9.30;99.90;;;;;;5025017;28;20726;-74
2023/05/03 06:17:06;;;;;;;3.28;1.90;;;9.30;99.90;;;;;;5048548;28;20593;-75
2023/05/03 06:19:35;;;;;;;2.45;1.63;;;9.30;99.90;;;;;;5057217;28;20048;-75
2023/05/03 06:22:01;;;;;;;6.03;1.90;;;9.40;99.90;;;;;;5036250;28;20051;-74
2023/05/03 06:24:31;;;;;;;3.65;1.83;;;9.20;99.90;;;;;;5050689;28;20535;-75
2023/05/03 06:26:59;;;;;;;4.63;1.80;;;9.50;99.90;;;;;;5058461;28;20091;-73
2023/05/03 06:29:25;;;;;;;5.32;1.92;;;9.50;99.90;;;;;;5047459;28;20461;-73
2023/05/03 06:31:52;;;;;;;4.60;1.77;;;9.50;99.90;;;;;;5055652;28;20056;-74
2023/05/03 06:34:21;;;;;;;4.22;1.70;;;9.70;99.90;;;;;;5024898;28;20048;-75
2023/05/03 06:36:47;;;;;;;5.45;1.73;;;9.70;99.90;;;;;;5059717;28;20702;-73
2023/05/03 06:39:13;;;;;;;3.35;1.65;;;9.80;99.90;;;;;;5057890;28;20394;-73
2023/05/03 06:41:39;;;;;;;5.78;1.65;;;9.80;99.90;;;;;;5060653;28;20054;-72
2023/05/03 06:44:06;;;;;;;2.58;1.20;;;9.90;99.90;;;;;;5044841;28;20117;-73
2023/05/03 06:46:32;;;;;;;2.88;1.80;;;10.00;99.90;;;;;;5050567;28;20661;-74
2023/05/03 06:48:58;;;;;;;4.57;1.40;;;10.60;99.90;;;;;;5020785;28;20041;-73
2023/05/03 06:51:29;;;;;;;3.30;1.50;;;10.10;99.90;;;;;;5049849;28;20064;-73
2023/05/03 06:54:08;;;;;;;6.65;1.70;;;10.10;99.90;;;;;;5057493;28;20227;-74
2023/05/03 06:56:35;;;;;;;3.50;1.50;;;10.20;99.90;;;;;;5043099;28;20423;-74
2023/05/03 06:59:20;;;;;;;3.67;1.65;;;10.20;99.90;;;;;;5059240;28;20048;-73
2023/05/03 07:01:46;;;;;;;2.75;1.40;;;10.40;99.90;;;;;;5034236;28;20044;-74
2023/05/03 07:04:12;;;;;;;3.30;1.33;;;10.40;99.90;;;;;;5048631;28;20059;-74
2023/05/03 07:06:38;;;;;;;2.50;1.20;;;10.60;99.90;;;;;;5059440;28;20125;-75
2023/05/03 07:09:05;;;;;;;4.57;1.50;;;10.70;99.90;;;;;;5064971;28;20076;-73
2023/05/03 07:11:46;;;;;;;;;;;10.70;99.90;;;;;;5076633;28;20097;-74
2023/05/03 07:14:26;;;;;;;3.50;1.40;;;10.80;99.90;;;;;;5061589;28;19973;-74
2023/05/03 07:16:53;;;;;;;4.10;1.23;;;10.90;99.90;;;;;;5044697;28;20058;-76
2023/05/03 07:19:19;;;;;;;2.92;1.25;;;11.00;99.90;;;;;;5059442;28;20447;-74
2023/05/03 07:21:44;;;;;;;2.55;1.20;;;11.00;99.90;;;;;;5048838;28;20126;-76
2023/05/03 07:24:11;;;;;;;1.80;1.10;;;11.10;99.90;;;;;;5043748;28;20059;-74
2023/05/03 07:26:37;;;;;;;2.67;1.40;;;11.10;99.90;;;;;;5057045;28;20048;-75
2023/05/03 07:29:03;;;;;;;5.63;1.70;;;11.20;99.90;;;;;;5032722;28;20607;-74
2023/05/03 07:31:29;;;;;;;3.80;1.60;;;11.30;99.90;;;;;;5044613;28;20369;-73
2023/05/03 07:33:55;;;;;;;4.03;1.25;;;11.30;99.90;;;;;;5052755;28;20510;-73
2023/05/03 07:36:21;;;;;;;4.97;1.40;;;11.40;99.90;;;;;;5060157;28;20563;-73
2023/05/03 07:38:47;;;;;;;3.28;1.27;;;11.50;99.90;;;;;;5045249;28;20050;-72
2023/05/03 07:41:12;;;;;;;1.70;1.10;;;11.60;99.90;;;;;;5044791;28;20395;-74
2023/05/03 07:43:38;;;;;;;5.20;1.35;;;11.70;99.90;;;;;;5037189;28;20052;-74
2023/05/03 07:46:04;;;;;;;4.75;1.15;;;11.70;99.90;;;;;;5052514;28;20056;-75
2023/05/03 07:48:30;;;;;;;2.28;1.20;;;11.80;99.90;;;;;;5046072;28;20079;-72
2023/05/03 07:50:55;;;;;;;6.97;1.30;;;11.80;99.90;;;;;;5018621;28;20043;-74
2023/05/03 07:53:21;;;;;;;1.95;1.10;;;11.80;99.90;;;;;;5011531;28;20040;-75
2023/05/03 07:55:54;;;;;;;3.72;1.20;;;11.80;99.90;;;;;;4997089;28;20826;-74
2023/05/03 07:58:20;;;;;;;2.80;1.20;;;11.90;99.90;;;;;;5029943;28;20102;-73
2023/05/03 08:00:45;;;;;;;2.85;1.20;;;12.00;99.90;;;;;;5026556;28;20052;-73
2023/05/03 08:03:11;;;;;;;3.83;1.60;;;12.40;99.90;;;;;;5046959;28;20102;-74
2023/05/03 08:05:37;;;;;;;3.35;1.02;;;12.90;99.90;;;;;;4991207;28;20052;-74
2023/05/03 08:08:06;;;;;;;2.63;1.10;;;13.30;99.90;;;;;;5029682;28;20056;-75
2023/05/03 08:10:36;;;;;;;4.22;1.20;;;13.40;99.90;;;;;;5029725;28;20060;-74
2023/05/03 08:13:05;;;;;;;3.75;1.33;;;13.50;99.90;;;;;;5043988;28;20060;-74
2023/05/03 08:15:32;;;;;;;3.63;1.27;;;13.50;99.90;;;;;;5045611;28;20037;-74
2023/05/03 08:18:04;;;;;;;3.65;1.15;;;13.40;99.90;;;;;;5025831;28;20052;-74
2023/05/03 08:20:30;;;;;;;2.90;1.30;;;13.30;99.90;;;;;;5042722;28;20040;-74
2023/05/03 08:22:58;;;;;;;5.43;1.60;;;13.20;99.90;;;;;;5017028;28;20145;-75
2023/05/03 08:25:24;;;;;;;3.28;1.40;;;13.20;99.90;;;;;;5025111;28;20049;-75
2023/05/03 08:27:51;;;;;;;3.20;1.27;;;13.10;99.90;;;;;;5045589;28;20102;-75
2023/05/03 08:30:25;;;;;;;4.85;1.27;;;13.00;99.90;;;;;;5022975;28;20549;-74
2023/05/03 08:32:59;;;;;;;4.38;1.40;;;13.00;99.90;;;;;;5030260;28;20119;-74
2023/05/03 08:35:26;;;;;;;2.75;1.20;;;13.00;99.90;;;;;;5044723;28;20052;-75
2023/05/03 08:37:52;;;;;;;1.67;1.05;;;13.00;99.90;;;;;;5027601;28;20052;-75
2023/05/03 08:40:21;;;;;;;4.40;1.10;;;13.20;99.90;;;;;;5048188;28;20059;-75
2023/05/03 08:42:48;;;;;;;1.48;1.02;;;13.30;99.90;;;;;;5047388;28;20068;-73
2023/05/03 08:45:15;;;;;;;2.58;1.20;;;13.40;99.90;;;;;;5043245;28;20173;-75
2023/05/03 08:47:46;;;;;;;3.78;1.27;;;13.40;99.90;;;;;;5045210;28;20550;-74
2023/05/03 08:50:15;;;;;;;2.38;1.10;;;13.40;99.90;;;;;;5046317;28;20055;-73
2023/05/03 08:52:43;;;;;;;2.83;1.10;;;13.40;99.90;;;;;;5044343;28;20306;-74
2023/05/03 08:55:10;;;;;;;2.40;1.08;;;13.50;99.90;;;;;;5044397;28;20833;-74
2023/05/03 08:57:36;;;;;;;3.90;1.00;;;13.60;99.90;;;;;;5027126;28;20048;-74
2023/05/03 09:00:09;;;;;;;3.33;1.17;;;13.70;99.90;;;;;;5046328;28;20044;-73
2023/05/03 09:02:37;;;;;;;4.28;1.30;;;13.70;99.90;;;;;;5044015;28;20052;-74
2023/05/03 09:05:26;;;;;;;3.47;1.38;;;13.70;99.90;;;;;;5023656;28;20036;-76
2023/05/03 09:08:08;;;;;;;4.00;1.10;;;13.70;99.90;;;;;;5019689;28;20048;-74
2023/05/03 09:10:37;;;;;;;3.42;1.40;;;13.70;99.90;;;;;;5031279;28;20711;-74
2023/05/03 09:13:10;;;;;;;3.08;1.42;;;13.70;99.90;;;;;;5045981;28;20044;-74
2023/05/03 09:15:36;;;;;;;3.60;1.63;;;13.60;99.90;;;;;;5023638;28;20924;-74
2023/05/03 09:18:15;;;;;;;3.80;1.38;;;13.60;99.90;;;;;;5045935;28;20127;-74
2023/05/03 09:20:44;;;;;;;4.78;1.30;;;12.50;99.90;;;;;;5025344;28;20486;-74
2023/05/03 09:23:10;;;;;;;4.10;1.33;;;13.50;99.90;;;;;;5045014;28;20053;-75
2023/05/03 09:25:56;;;;;;;4.38;1.25;;;13.50;99.90;;;;;;5044081;28;20037;-73
2023/05/03 09:28:22;;;;;;;2.58;1.20;;;13.40;99.90;;;;;;5047042;28;20059;-73
2023/05/03 09:30:49;;;;;;;5.25;1.10;;;13.40;99.90;;;;;;5011524;28;20052;-74
2023/05/03 09:33:20;;;;;;;2.88;1.30;;;13.30;99.90;;;;;;5044316;28;20079;-74
2023/05/03 09:36:01;;;;;;;3.08;1.30;;;13.40;99.90;;;;;;5046775;28;21805;-74
2023/05/03 09:38:30;;;;;;;6.53;1.65;;;13.30;99.90;;;;;;5026488;28;20289;-72
2023/05/03 09:40:56;;;;;;;3.22;1.20;;;13.30;99.90;;;;;;5043727;28;20044;-75
2023/05/03 09:43:22;;;;;;;6.00;1.73;;;13.20;99.90;;;;;;5042464;28;20095;-74
2023/05/03 09:45:48;;;;;;;5.22;1.35;;;13.20;99.90;;;;;;5045345;28;20098;-73
2023/05/03 09:48:17;;;;;;;4.25;1.63;;;13.20;99.90;;;;;;5052614;28;20052;-73
2023/05/03 09:50:43;;;;;;;4.32;1.35;;;13.20;99.90;;;;;;5049397;28;20070;-74
2023/05/03 09:53:09;;;;;;;5.15;1.60;;;13.20;99.90;;;;;;5047563;28;20154;-74
2023/05/03 09:55:39;;;;;;;4.68;1.50;;;13.20;99.90;;;;;;5059920;28;20091;-74
2023/05/03 09:58:06;;;;;;;4.25;1.50;;;13.30;99.90;;;;;;5042915;28;20045;-74
2023/05/03 10:00:41;;;;;;;3.28;1.40;;;13.30;99.90;;;;;;5029690;28;20453;-73
2023/05/03 10:03:17;;;;;;;3.63;1.23;;;13.40;99.90;;;;;;5046475;28;20049;-74
2023/05/03 10:05:46;;;;;;;3.30;1.10;;;13.50;99.90;;;;;;5034889;28;20040;-73
2023/05/03 10:08:23;;;;;;;4.13;1.55;;;13.50;99.90;;;;;;5025274;28;20040;-74
2023/05/03 10:10:53;;;;;;;2.90;1.13;;;13.60;99.90;;;;;;5046977;28;20049;-74
2023/05/03 10:13:23;;;;;;;3.65;1.00;;;13.60;99.90;;;;;;5043863;28;20379;-73
2023/05/03 10:15:55;;;;;;;4.15;1.20;;;13.70;99.90;;;;;;5033828;28;20048;-75
2023/05/03 10:18:28;;;;;;;3.08;1.33;;;13.90;99.90;;;;;;5043882;28;20052;-74
2023/05/03 10:21:01;;;;;;;3.20;1.10;;;14.00;99.90;;;;;;5034549;28;20052;-73
2023/05/03 10:23:26;;;;;;;2.85;1.20;;;14.10;99.90;;;;;;5046380;28;20052;-74
2023/05/03 10:26:19;;;;;;;4.38;1.17;;;14.10;99.90;;;;;;5048610;28;20045;-74
2023/05/03 10:28:45;;;;;;;3.13;1.30;;;14.20;99.90;;;;;;5038383;28;20093;-73
2023/05/03 10:31:43;;;;;;;4.00;1.40;;;14.30;99.90;;;;;;5032645;28;20060;-73
2023/05/03 10:34:29;;;;;;;4.32;1.23;;;14.30;99.80;;;;;;5051253;28;22656;-73
2023/05/03 10:36:55;;;;;;;2.97;1.20;;;14.40;99.80;;;;;;5050612;28;20056;-73
2023/05/03 10:39:21;;;;;;;2.15;1.25;;;14.50;99.90;;;;;;5025669;28;20087;-74
2023/05/03 10:42:08;;;;;;;3.60;1.42;;;14.60;99.80;;;;;;5053792;28;20052;-73
2023/05/03 10:44:38;;;;;;;3.20;1.27;;;14.70;99.30;;;;;;5047227;28;20040;-74
2023/05/03 10:47:15;;;;;;;2.63;1.33;;;14.70;99.50;;;;;;5025492;28;20040;-74
2023/05/03 10:49:42;;;;;;;5.55;1.48;;;14.90;99.30;;;;;;5040195;28;20339;-73
2023/05/03 10:52:39;;;;;;;3.55;1.38;;;14.90;99.20;;;;;;5038141;28;20447;-72
2023/05/03 10:55:27;;;;;;;3.65;1.40;;;14.80;98.20;;;;;;5047454;28;20149;-74
2023/05/03 10:57:56;;;;;;;3.47;1.50;;;14.80;98.50;;;;;;5038963;28;20736;-75
2023/05/03 11:00:28;;;;;;;4.82;1.17;;;14.80;99.10;;;;;;5030152;28;20310;-75
2023/05/03 11:03:28;;;;;;;4.85;1.75;;;14.90;99.10;;;;;;5046236;28;20094;-74
2023/05/03 11:05:54;;;;;;;;;;;15.00;98.70;;;;;;5045309;28;20851;-73
2023/05/03 11:08:26;;;;;;;3.28;1.20;;;15.10;98.40;;;;;;5041408;28;19986;-73
2023/05/03 11:10:58;;;;;;;5.35;1.50;;;15.10;99.00;;;;;;5033236;28;20052;-75
2023/05/03 11:13:24;;;;;;;4.45;1.75;;;15.30;98.80;;;;;;5026203;28;20060;-74
2023/05/03 11:15:53;;;;;;;3.38;1.30;;;15.60;98.60;;;;;;5031536;28;20186;-74
2023/05/03 11:18:19;;;;;;;3.03;1.40;;;15.70;98.30;;;;;;5023505;28;20049;-73
2023/05/03 11:20:52;;;;;;;3.90;1.20;;;15.80;98.20;;;;;;5048824;28;20461;-74
2023/05/03 11:23:18;;;;;;;3.45;1.30;;;15.80;98.10;;;;;;5049324;28;20060;-75
2023/05/03 11:25:44;;;;;;;4.18;1.33;;;15.80;98.00;;;;;;5031919;28;20044;-74
2023/05/03 11:28:10;;;;;;;4.38;1.65;;;15.80;97.90;;;;;;5059286;28;20668;-75
2023/05/03 11:30:36;;;;;;;4.30;1.70;;;15.80;97.80;;;;;;5054829;28;20147;-73
2023/05/03 11:33:05;;;;;;;3.25;1.70;;;15.80;97.70;;;;;;5056178;28;20063;-74
2023/05/03 11:35:34;;;;;;;3.15;1.45;;;15.70;97.40;;;;;;5030981;28;20527;-74
2023/05/03 11:38:00;;;;;;;4.10;1.35;;;15.70;97.80;;;;;;5022673;28;20147;-73
2023/05/03 11:40:26;;;;;;;5.10;1.50;;;15.70;97.70;;;;;;5035884;28;20048;-74
2023/05/03 11:42:59;;;;;;;3.70;1.30;;;15.70;97.60;;;;;;5036071;28;20050;-73
2023/05/03 11:45:31;;;;;;;3.05;1.40;;;15.70;97.50;;;;;;5046466;28;20047;-74
2023/05/03 11:47:58;;;;;;;4.95;1.50;;;15.80;97.40;;;;;;5030302;28;20075;-75
2023/05/03 11:50:46;;;;;;;3.67;1.60;;;15.80;97.40;;;;;;5047337;28;21571;-74
2023/05/03 11:53:17;;;;;;;5.45;1.40;;;16.00;96.90;;;;;;5042906;28;20360;-74
2023/05/03 11:55:46;;;;;;;3.78;1.40;;;16.50;96.90;;;;;;5013589;28;20057;-74
2023/05/03 11:58:14;;;;;;;3.63;1.40;;;16.80;96.60;;;;;;5046672;28;20048;-74
2023/05/03 12:00:45;;;;;;;4.72;1.50;;;16.90;96.20;;;;;;5031748;28;20040;-73
2023/05/03 12:03:20;;;;;;;4.20;1.00;;;17.10;95.80;;;;;;5044434;28;20051;-75
2023/05/03 12:05:49;;;;;;;7.00;1.50;;;17.30;95.30;;;;;;5049181;28;20566;-73
2023/05/03 12:08:17;;;;;;;5.20;1.58;;;17.60;95.20;;;;;;5028774;28;20080;-74
2023/05/03 12:10:46;;;;;;;3.88;1.95;;;17.60;94.80;;;;;;5048718;28;20138;-73
2023/05/03 12:13:12;;;;;;;3.33;1.50;;;17.60;94.60;;;;;;5047188;28;20075;-75
2023/05/03 12:15:39;;;;;;;3.72;1.45;;;17.40;94.30;;;;;;5027099;28;20080;-76
2023/05/03 12:18:10;;;;;;;3.28;1.55;;;17.40;94.30;;;;;;5050353;28;20131;-74
2023/05/03 12:20:37;;;;;;;2.75;1.45;;;17.50;94.10;;;;;;5044798;28;20127;-74
2023/05/03 12:23:09;;;;;;;3.47;1.70;;;17.70;94.10;;;;;;5015295;28;20043;-74
2023/05/03 12:25:37;;;;;;;5.35;1.70;;;18.00;93.70;;;;;;5030167;28;20044;-76
2023/05/03 12:28:05;;;;;;;3.45;1.70;;;18.40;93.20;;;;;;5014839;28;20051;-76
2023/05/03 12:30:31;;;;;;;4.05;1.65;;;18.90;92.80;;;;;;5031245;28;20045;-74
2023/05/03 12:32:57;;;;;;;4.28;1.35;;;19.10;92.00;;;;;;5035703;28;20066;-76
2023/05/03 12:35:24;;;;;;;5.47;1.42;;;19.40;91.60;;;;;;5026731;28;20464;-74
2023/05/03 12:37:50;;;;;;;3.28;1.40;;;19.60;91.20;;;;;;5027660;28;20052;-75
2023/05/03 12:40:18;;;;;;;2.78;1.20;;;19.60;90.50;;;;;;5052121;28;20109;-74
2023/05/03 12:42:44;;;;;;;5.10;1.63;;;19.70;90.40;;;;;;5030519;28;20126;-75
2023/05/03 12:45:12;;;;;;;4.85;1.95;;;20.00;90.00;;;;;;5030776;28;20173;-74
2023/05/03 12:47:40;;;;;;;3.63;1.35;;;20.10;89.10;;;;;;5030324;28;20044;-74
2023/05/03 12:50:08;;;;;;;4.97;1.35;;;20.40;88.30;;;;;;5067152;28;20040;-74
2023/05/03 12:52:35;;;;;;;4.88;1.65;;;20.40;87.30;;;;;;5048663;28;20064;-75
2023/05/03 12:55:03;;;;;;;4.18;1.40;;;20.40;87.00;;;;;;5025223;28;20147;-75
2023/05/03 12:57:30;;;;;;;2.85;1.65;;;20.40;86.60;;;;;;5034869;28;20044;-73
2023/05/03 12:59:55;;;;;;;3.45;1.58;;;20.30;85.40;;;;;;5012491;28;20079;-74
2023/05/03 13:02:21;;;;;;;4.20;1.30;;;20.60;85.00;;;;;;5031332;28;20250;-75